Time;durP1;ratioP1;P1;durP2;ratioP2;P2;SDS_P1;SDS_P2;PMS_P1;PMS_P2;Temp;Humidity;BMP_temperature;BMP_pressure;BME280_temperature;BME280_humidity;BME280_pressure;Samples;Min_cycle;Max_cycle;Signal;HPM_P1;HPM_P2
2022/11/12 00:01:07;;;;;;;2.10;2.00;;;8.60;1.00;;;;;;4955648;29;20467;-74
2022/11/12 00:03:35;;;;;;;0.50;0.10;;;8.60;1.00;;;;;;4951232;29;20556;-71
2022/11/12 00:06:04;;;;;;;0.50;0.10;;;8.60;1.00;;;;;;4947699;29;20816;-71
2022/11/12 00:08:32;;;;;;;0.50;0.20;;;8.60;1.00;;;;;;4954705;29;20451;-72
2022/11/12 00:11:00;;;;;;;0.50;0.10;;;8.60;1.00;;;;;;4946029;29;20488;-71
2022/11/12 00:13:27;;;;;;;0.50;0.10;;;8.60;1.00;;;;;;4943713;29;20954;-73
2022/11/12 00:15:55;;;;;;;0.50;0.10;;;8.70;1.00;;;;;;4955560;29;20455;-71
2022/11/12 00:18:23;;;;;;;0.50;0.10;;;8.70;1.00;;;;;;4955677;29;20522;-71
2022/11/12 00:20:51;;;;;;;0.50;0.10;;;8.70;1.00;;;;;;4955218;29;21193;-72
2022/11/12 00:23:20;;;;;;;0.50;0.10;;;8.70;1.00;;;;;;4955266;29;20493;-71
2022/11/12 00:25:48;;;;;;;0.50;0.10;;;8.70;1.00;;;;;;4955592;29;20513;-71
2022/11/12 00:28:16;;;;;;;0.50;0.10;;;8.70;1.00;;;;;;4955681;29;20963;-70
2022/11/12 00:30:43;;;;;;;0.50;0.10;;;8.70;1.00;;;;;;4955427;29;20491;-71
2022/11/12 00:33:11;;;;;;;0.50;0.10;;;8.70;1.00;;;;;;4955917;29;20450;-70
2022/11/12 00:35:39;;;;;;;1.37;0.93;;;8.70;1.00;;;;;;4957000;29;20958;-71
2022/11/12 00:38:06;;;;;;;0.50;0.10;;;8.70;1.00;;;;;;4956133;29;20494;-71
2022/11/12 00:40:35;;;;;;;0.50;0.10;;;8.60;1.00;;;;;;4955864;29;20467;-71
2022/11/12 00:43:03;;;;;;;0.50;0.10;;;8.60;1.00;;;;;;4954896;29;20461;-71
2022/11/12 00:45:31;;;;;;;0.50;0.10;;;8.60;1.00;;;;;;4954412;28;20470;-71
2022/11/12 00:47:59;;;;;;;0.50;0.10;;;8.60;1.00;;;;;;4955090;29;20443;-71
2022/11/12 00:50:26;;;;;;;0.50;0.10;;;8.60;1.00;;;;;;4954823;29;20509;-71
2022/11/12 00:52:54;;;;;;;0.50;0.10;;;8.60;1.00;;;;;;4954490;29;20451;-72
2022/11/12 00:55:22;;;;;;;0.50;0.10;;;7.70;1.00;;;;;;4954800;29;20530;-72
2022/11/12 00:57:51;;;;;;;0.50;0.10;;;8.60;1.00;;;;;;4954950;29;20446;-72
2022/11/12 05:02:16;;;;;;;0.50;0.20;;;8.70;99.90;;;;;;5194644;23;20288;-76
2022/11/12 05:04:43;;;;;;;0.50;0.10;;;8.60;99.90;;;;;;4911187;29;20444;-77
2022/11/12 05:07:11;;;;;;;0.50;0.20;;;8.50;1.00;;;;;;4919539;29;20456;-76
2022/11/12 05:09:40;;;;;;;0.50;0.10;;;8.40;1.00;;;;;;4917192;29;20539;-77
2022/11/12 05:12:08;;;;;;;11.73;2.67;;;8.30;1.00;;;;;;4905002;29;20561;-76
2022/11/12 05:14:36;;;;;;;3.60;1.93;;;8.30;1.00;;;;;;4922454;29;20452;-77
2022/11/12 05:17:05;;;;;;;0.83;0.83;;;8.30;1.00;;;;;;4965777;23;20489;-70
2022/11/12 05:19:35;;;;;;;0.50;0.10;;;8.20;1.00;;;;;;4957811;28;20443;-70
2022/11/12 05:22:04;;;;;;;0.50;0.10;;;8.20;1.00;;;;;;4954410;29;20479;-71
2022/11/12 05:24:34;;;;;;;0.50;0.20;;;8.30;1.00;;;;;;4955041;29;20474;-71
2022/11/12 05:27:12;;;;;;;0.50;0.10;;;8.20;1.00;;;;;;4954717;29;20498;-72
2022/11/12 05:29:40;;;;;;;0.50;0.10;;;8.20;1.00;;;;;;4954852;29;20447;-70
2022/11/12 05:32:10;;;;;;;0.50;0.10;;;8.20;1.00;;;;;;4953688;28;20518;-71
2022/11/12 05:34:39;;;;;;;0.50;0.10;;;8.20;1.00;;;;;;4954321;29;20576;-71
2022/11/12 05:37:08;;;;;;;0.50;0.10;;;8.20;1.00;;;;;;4954231;29;21192;-71
2022/11/12 05:39:36;;;;;;;0.50;0.10;;;8.20;1.00;;;;;;4954132;29;20447;-71
2022/11/12 05:42:04;;;;;;;0.50;0.10;;;8.20;1.00;;;;;;4954278;29;20443;-72
2022/11/12 05:44:40;;;;;;;0.60;0.20;;;8.20;1.00;;;;;;4954452;29;20447;-72
2022/11/12 05:47:08;;;;;;;1.07;1.03;;;8.20;1.00;;;;;;4954455;29;20591;-71
2022/11/12 05:49:35;;;;;;;0.50;0.10;;;8.10;1.00;;;;;;4954186;29;21091;-72
2022/11/12 05:52:05;;;;;;;0.50;0.10;;;8.10;1.00;;;;;;4953744;29;20514;-71
2022/11/12 05:54:33;;;;;;;0.50;0.17;;;8.10;1.00;;;;;;4954007;29;20443;-71
2022/11/12 05:57:01;;;;;;;0.50;0.10;;;8.10;1.00;;;;;;4954012;29;20841;-71
2022/11/12 05:59:29;;;;;;;0.50;0.10;;;8.10;1.00;;;;;;4949903;29;20548;-71
2022/11/12 06:01:57;;;;;;;0.50;0.10;;;8.10;1.00;;;;;;4922965;29;20467;-71
2022/11/12 06:04:25;;;;;;;0.50;0.20;;;8.10;1.00;;;;;;4935106;29;20459;-71
2022/11/12 06:06:52;;;;;;;0.50;0.10;;;8.10;1.00;;;;;;4934877;29;20467;-70
2022/11/12 06:09:21;;;;;;;0.50;0.30;;;8.10;1.00;;;;;;4935018;29;20453;-71
2022/11/12 06:11:49;;;;;;;0.50;0.10;;;10.50;1.00;;;;;;4926396;29;20484;-71
2022/11/12 06:14:17;;;;;;;0.50;0.10;;;8.10;1.00;;;;;;4925105;29;20495;-71
2022/11/12 06:16:45;;;;;;;0.70;0.57;;;8.00;1.00;;;;;;4918919;29;20488;-71
2022/11/12 06:19:13;;;;;;;0.50;0.30;;;8.00;1.00;;;;;;4934532;29;20463;-72
2022/11/12 06:21:40;;;;;;;0.50;0.10;;;8.00;1.00;;;;;;4933787;29;20448;-72
2022/11/12 06:24:09;;;;;;;0.50;0.20;;;8.00;1.00;;;;;;4919797;29;20452;-71
2022/11/12 06:26:38;;;;;;;0.50;0.10;;;8.00;1.00;;;;;;4914085;29;20473;-72
2022/11/12 06:29:05;;;;;;;0.50;0.10;;;8.00;1.00;;;;;;4915781;29;20449;-71
2022/11/12 06:31:33;;;;;;;0.50;0.10;;;8.00;1.00;;;;;;4915758;29;20547;-71
2022/11/12 06:34:02;;;;;;;0.50;0.20;;;8.00;1.00;;;;;;4915318;29;20495;-71
2022/11/12 06:36:29;;;;;;;0.50;0.20;;;8.00;1.00;;;;;;4915388;29;20888;-71
2022/11/12 06:38:57;;;;;;;0.50;0.10;;;8.00;1.00;;;;;;4915452;29;20996;-72
2022/11/12 06:41:25;;;;;;;0.50;0.10;;;8.00;1.00;;;;;;4915371;29;20449;-71
2022/11/12 06:43:54;;;;;;;0.50;0.10;;;8.00;1.00;;;;;;4929389;29;20452;-71
2022/11/12 06:46:22;;;;;;;0.50;0.10;;;8.00;1.00;;;;;;4937986;29;20460;-71
2022/11/12 06:48:49;;;;;;;0.50;0.10;;;8.00;1.00;;;;;;4938301;29;20478;-71
2022/11/12 06:51:20;;;;;;;0.50;0.10;;;8.00;1.00;;;;;;4938002;29;20525;-71
2022/11/12 06:53:48;;;;;;;0.50;0.10;;;7.90;1.00;;;;;;4938009;29;20499;-71
2022/11/12 06:56:16;;;;;;;0.50;0.10;;;7.90;1.00;;;;;;4937736;29;20600;-71
2022/11/12 06:58:44;;;;;;;0.50;0.30;;;7.90;1.00;;;;;;4937997;29;20459;-72
2022/11/12 07:01:14;;;;;;;0.50;0.10;;;7.90;1.00;;;;;;4935721;29;20475;-72
2022/11/12 07:03:43;;;;;;;0.50;0.10;;;8.00;1.00;;;;;;4932803;29;20968;-72
2022/11/12 07:06:13;;;;;;;0.50;0.10;;;8.00;1.00;;;;;;4937286;29;20531;-72
2022/11/12 07:08:42;;;;;;;0.50;0.10;;;7.90;1.00;;;;;;4938180;29;20641;-71
2022/11/12 07:11:09;;;;;;;0.77;0.27;;;7.90;1.00;;;;;;4938288;29;20827;-71
2022/11/12 07:13:37;;;;;;;0.50;0.10;;;7.90;1.00;;;;;;4927894;29;20485;-71
2022/11/12 07:16:07;;;;;;;0.50;0.10;;;7.90;1.00;;;;;;4934204;29;20553;-72
2022/11/12 07:18:38;;;;;;;0.60;0.40;;;7.80;1.00;;;;;;4933243;29;20503;-73
2022/11/12 07:21:08;;;;;;;0.50;0.10;;;7.90;1.00;;;;;;4927837;29;20491;-71
2022/11/12 07:23:37;;;;;;;0.50;0.10;;;7.90;1.00;;;;;;4927080;29;20486;-71
2022/11/12 07:26:06;;;;;;;0.50;0.10;;;7.90;1.00;;;;;;4918522;29;20528;-71
2022/11/12 07:28:34;;;;;;;0.50;0.10;;;7.90;1.00;;;;;;4948278;29;20454;-71
2022/11/12 07:31:04;;;;;;;0.50;0.10;;;7.90;1.00;;;;;;4956605;29;20497;-72
2022/11/12 07:33:33;;;;;;;1.23;0.97;;;7.90;1.00;;;;;;4945624;29;20492;-72
2022/11/12 07:36:05;;;;;;;0.50;0.10;;;7.90;1.00;;;;;;4936442;29;20522;-73
2022/11/12 07:38:35;;;;;;;0.50;0.10;;;7.90;1.00;;;;;;4937287;29;20990;-72
2022/11/12 07:41:05;;;;;;;0.50;0.10;;;7.90;1.00;;;;;;4935180;29;21030;-72
2022/11/12 07:43:34;;;;;;;0.50;0.10;;;7.90;1.00;;;;;;4936521;29;20479;-72
2022/11/12 07:46:04;;;;;;;4.20;1.83;;;7.80;1.00;;;;;;4935204;29;20531;-72
2022/11/12 07:48:38;;;;;;;0.50;0.10;;;10.30;1.00;;;;;;4928030;29;20458;-72
2022/11/12 07:51:12;;;;;;;0.50;0.10;;;7.80;1.00;;;;;;4936464;29;20448;-72
2022/11/12 07:53:40;;;;;;;0.50;0.10;;;7.90;1.00;;;;;;4933763;29;20495;-71
2022/11/12 07:56:10;;;;;;;0.50;0.10;;;7.90;1.00;;;;;;4936688;29;20480;-70
2022/11/12 07:58:39;;;;;;;0.50;0.10;;;7.90;1.00;;;;;;4937124;29;20456;-70
2022/11/12 08:01:11;;;;;;;0.50;0.30;;;7.90;1.00;;;;;;4937524;29;20448;-71
2022/11/12 08:03:39;;;;;;;0.50;0.10;;;8.00;1.00;;;;;;4936293;29;20448;-72
2022/11/12 08:06:08;;;;;;;0.50;0.10;;;8.00;1.00;;;;;;4936499;29;20476;-71
2022/11/12 08:08:36;;;;;;;0.50;0.10;;;8.00;1.00;;;;;;4926993;29;20510;-72
2022/11/12 08:11:04;;;;;;;1.90;1.80;;;8.00;1.00;;;;;;4931179;29;21035;-72
2022/11/12 08:13:32;;;;;;;0.50;0.10;;;7.90;1.00;;;;;;4930706;29;20499;-71
2022/11/12 08:16:00;;;;;;;0.50;0.10;;;7.80;1.00;;;;;;4935488;29;20515;-70
2022/11/12 08:18:28;;;;;;;0.50;0.10;;;7.80;1.00;;;;;;4921417;29;20521;-72
2022/11/12 08:21:00;;;;;;;0.50;0.10;;;7.90;1.00;;;;;;4927932;29;20604;-71
2022/11/12 08:23:29;;;;;;;0.50;0.17;;;7.90;1.00;;;;;;4917338;29;20449;-70
2022/11/12 08:25:58;;;;;;;0.60;0.40;;;7.90;1.00;;;;;;4930918;29;20476;-71
2022/11/12 08:28:28;;;;;;;0.50;0.17;;;7.90;1.00;;;;;;4936103;29;20495;-70
2022/11/12 08:31:04;;;;;;;0.50;0.10;;;;;;;;;;4927225;29;20977;-73
2022/11/12 08:33:32;;;;;;;0.60;0.40;;;7.90;1.00;;;;;;4917436;29;20571;-71
2022/11/12 08:36:02;;;;;;;0.50;0.10;;;7.90;1.00;;;;;;4932519;29;20472;-72
2022/11/12 08:38:32;;;;;;;0.50;0.20;;;7.90;1.00;;;;;;4924880;29;20452;-71
2022/11/12 08:41:00;;;;;;;0.50;0.10;;;7.90;1.00;;;;;;4929062;29;20444;-70
2022/11/12 08:43:28;;;;;;;0.53;0.20;;;7.90;1.00;;;;;;4933040;29;20448;-70
2022/11/12 08:45:58;;;;;;;0.50;0.10;;;7.80;99.90;;;;;;4936647;29;20525;-72
2022/11/12 08:48:27;;;;;;;0.50;0.10;;;7.80;99.90;;;;;;4934349;29;20939;-72
2022/11/12 08:50:55;;;;;;;0.50;0.10;;;7.80;99.90;;;;;;4931956;29;20452;-72
2022/11/12 08:53:25;;;;;;;0.50;0.10;;;7.90;99.90;;;;;;4916346;29;20484;-74
2022/11/12 08:55:55;;;;;;;0.50;0.20;;;7.90;99.90;;;;;;4916879;29;20877;-72
2022/11/12 08:58:23;;;;;;;3.43;1.70;;;7.90;99.90;;;;;;4916684;29;20477;-72
2022/11/12 09:00:53;;;;;;;0.50;0.10;;;7.80;99.90;;;;;;4916667;29;20545;-71
2022/11/12 09:03:23;;;;;;;0.60;0.20;;;7.90;99.90;;;;;;4925502;29;20935;-71
2022/11/12 09:05:52;;;;;;;0.50;0.10;;;7.80;99.90;;;;;;4916451;29;20509;-72
2022/11/12 09:08:22;;;;;;;0.50;0.10;;;7.90;99.90;;;;;;4916836;29;20521;-72
2022/11/12 09:10:51;;;;;;;0.70;0.70;;;7.80;99.90;;;;;;4923112;29;20457;-73
2022/11/12 09:13:20;;;;;;;1.53;1.43;;;7.80;99.90;;;;;;4923955;29;20521;-72
2022/11/12 09:15:48;;;;;;;0.50;0.10;;;7.70;99.90;;;;;;4931322;29;20460;-70
2022/11/12 09:18:18;;;;;;;0.67;0.67;;;7.70;99.90;;;;;;4934301;29;20542;-72
2022/11/12 09:20:46;;;;;;;0.50;0.10;;;7.70;99.90;;;;;;4920090;29;20477;-73
2022/11/12 09:23:16;;;;;;;0.50;0.10;;;7.70;99.90;;;;;;4927435;29;20452;-72
2022/11/12 09:25:44;;;;;;;0.50;0.30;;;7.70;99.90;;;;;;4924154;29;20463;-72
2022/11/12 09:28:14;;;;;;;0.50;0.10;;;7.80;99.90;;;;;;4925592;29;20449;-73
2022/11/12 09:30:46;;;;;;;0.50;0.10;;;7.70;1.00;;;;;;4928523;29;20560;-72
2022/11/12 09:33:14;;;;;;;0.50;0.10;;;7.80;1.00;;;;;;4933698;29;20483;-73
2022/11/12 09:35:42;;;;;;;0.50;0.10;;;7.90;1.00;;;;;;4929097;29;20543;-72
2022/11/12 09:38:10;;;;;;;0.60;0.50;;;7.90;1.00;;;;;;4936276;29;20471;-71
2022/11/12 09:40:47;;;;;;;1.70;0.50;;;7.90;1.00;;;;;;4930005;29;21020;-70
2022/11/12 09:43:22;;;;;;;0.50;0.10;;;8.00;99.90;;;;;;4931339;29;20447;-71
2022/11/12 09:45:55;;;;;;;1.23;1.13;;;7.90;99.90;;;;;;4921794;29;20491;-71
2022/11/12 09:48:47;;;;;;;0.50;0.10;;;7.90;99.90;;;;;;4926047;29;20444;-71
2022/11/12 09:51:21;;;;;;;0.50;0.10;;;7.90;99.90;;;;;;4928924;29;20455;-71
2022/11/12 09:53:55;;;;;;;0.50;0.10;;;8.00;99.90;;;;;;4924421;29;20483;-72
2022/11/12 09:56:24;;;;;;;0.50;0.10;;;8.00;99.90;;;;;;4918185;29;20497;-70
2022/11/12 09:58:53;;;;;;;0.50;0.10;;;8.00;99.90;;;;;;4930745;29;20463;-70
2022/11/12 10:01:34;;;;;;;0.50;0.10;;;8.10;99.90;;;;;;4928452;29;20523;-70
2022/11/12 10:04:23;;;;;;;0.50;0.10;;;8.10;99.90;;;;;;4931445;29;20455;-72
2022/11/12 10:07:00;;;;;;;0.50;0.10;;;8.10;99.90;;;;;;4930421;29;20465;-72
2022/11/12 10:09:34;;;;;;;0.50;0.20;;;8.10;99.90;;;;;;4922318;29;20453;-72
2022/11/12 10:12:32;;;;;;;0.50;0.20;;;8.10;99.90;;;;;;4928449;29;20451;-70
2022/11/12 10:18:21;;;;;;;0.50;0.10;;;8.20;99.90;;;;;;4925418;29;20448;-71
2022/11/12 10:20:55;;;;;;;1.33;1.23;;;8.20;99.90;;;;;;4924259;29;20475;-71
2022/11/12 10:23:27;;;;;;;0.50;0.10;;;8.20;99.90;;;;;;4920810;29;20453;-71
2022/11/12 10:25:59;;;;;;;0.50;0.20;;;8.20;99.90;;;;;;4914425;29;20461;-71
2022/11/12 10:28:33;;;;;;;0.60;0.20;;;6.60;99.90;;;;;;4916709;29;20767;-71
2022/11/12 10:31:12;;;;;;;0.50;0.10;;;8.10;99.90;;;;;;4926980;29;20830;-71
2022/11/12 10:33:41;;;;;;;3.47;3.20;;;8.20;99.90;;;;;;4928327;29;21012;-70
2022/11/12 10:36:27;;;;;;;0.50;0.20;;;8.30;99.90;;;;;;4927686;29;20615;-71
2022/11/12 10:38:55;;;;;;;2.90;1.57;;;8.30;99.90;;;;;;4932764;29;20460;-72
2022/11/12 10:41:26;;;;;;;0.50;0.10;;;8.40;99.90;;;;;;4929123;29;20463;-71
2022/11/12 10:43:56;;;;;;;0.50;0.10;;;8.40;99.90;;;;;;4932138;29;20440;-71
2022/11/12 10:46:26;;;;;;;1.33;0.83;;;8.30;99.90;;;;;;4932972;29;20468;-72
2022/11/12 10:48:59;;;;;;;0.60;0.30;;;8.30;99.90;;;;;;4922819;29;20464;-72
2022/11/12 10:51:30;;;;;;;0.50;0.10;;;8.30;99.90;;;;;;4927140;29;20456;-71
2022/11/12 10:53:58;;;;;;;0.50;0.20;;;8.40;99.90;;;;;;4921807;29;20548;-71
2022/11/12 10:56:28;;;;;;;0.50;0.30;;;8.40;99.90;;;;;;4928020;29;20475;-71
2022/11/12 10:59:10;;;;;;;0.50;0.10;;;8.40;99.90;;;;;;4927223;29;20634;-70
2022/11/12 11:01:38;;;;;;;2.63;1.80;;;8.40;99.90;;;;;;4924118;29;20474;-70
2022/11/12 11:04:25;;;;;;;0.50;0.10;;;8.50;99.90;;;;;;4928069;29;20452;-70
2022/11/12 11:07:00;;;;;;;0.50;0.10;;;8.50;99.90;;;;;;4929900;29;20864;-70
2022/11/12 11:09:28;;;;;;;0.50;0.10;;;8.60;99.90;;;;;;4934959;29;20475;-70
2022/11/12 11:11:56;;;;;;;0.50;0.10;;;8.60;99.90;;;;;;4923363;29;20448;-71
2022/11/12 11:14:30;;;;;;;0.50;0.10;;;8.70;99.90;;;;;;4921489;29;20563;-70
2022/11/12 11:17:03;;;;;;;0.50;0.10;;;8.70;99.90;;;;;;4927010;29;20513;-71
2022/11/12 11:19:37;;;;;;;0.50;0.10;;;8.80;99.90;;;;;;4924546;29;20503;-70
2022/11/12 11:22:25;;;;;;;0.50;0.10;;;8.80;99.90;;;;;;4926445;29;20475;-71
2022/11/12 11:25:20;;;;;;;0.50;0.10;;;8.90;99.90;;;;;;4926435;29;20497;-70
2022/11/12 11:28:01;;;;;;;0.50;0.10;;;8.90;99.90;;;;;;4930515;29;20479;-71
2022/11/12 11:30:28;;;;;;;0.50;0.10;;;8.90;99.90;;;;;;4933056;29;20452;-71
2022/11/12 11:33:24;;;;;;;0.50;0.10;;;9.00;99.90;;;;;;4921804;29;20443;-72
2022/11/12 11:36:07;;;;;;;0.60;0.60;;;9.10;99.90;;;;;;4930990;29;20912;-71
2022/11/12 11:38:49;;;;;;;0.50;0.10;;;9.10;99.90;;;;;;4935577;29;20822;-72
2022/11/12 11:41:34;;;;;;;0.50;0.10;;;9.00;99.90;;;;;;4925957;29;20567;-72
2022/11/12 11:44:13;;;;;;;0.50;0.10;;;9.10;99.90;;;;;;4924179;29;20496;-71
2022/11/12 11:46:55;;;;;;;1.90;1.80;;;9.10;99.90;;;;;;4931896;29;20484;-72
2022/11/12 11:49:35;;;;;;;1.23;0.50;;;9.20;99.90;;;;;;4935385;29;20935;-72
2022/11/12 11:52:14;;;;;;;0.50;0.10;;;9.20;99.90;;;;;;4925803;29;20460;-69
2022/11/12 11:54:59;;;;;;;0.50;0.10;;;9.30;99.90;;;;;;4929488;29;20487;-70
2022/11/12 11:57:30;;;;;;;0.50;0.10;;;9.30;99.90;;;;;;4933541;29;20495;-70
2022/11/12 12:00:11;;;;;;;0.80;0.80;;;9.30;99.90;;;;;;4936134;29;20955;-71
2022/11/12 12:03:04;;;;;;;0.50;0.10;;;9.30;99.90;;;;;;4929879;29;20544;-73
2022/11/12 12:05:42;;;;;;;0.50;0.10;;;9.40;99.90;;;;;;4932389;29;20959;-71
2022/11/12 12:08:18;;;;;;;0.50;0.10;;;9.40;99.90;;;;;;4924973;29;20459;-73
2022/11/12 12:10:57;;;;;;;0.50;0.10;;;9.40;99.90;;;;;;4931895;29;20480;-74
2022/11/12 12:13:46;;;;;;;0.60;0.47;;;9.50;99.90;;;;;;4925299;29;20456;-71
2022/11/12 12:16:25;;;;;;;0.50;0.10;;;9.60;99.90;;;;;;4928454;29;20486;-69
2022/11/12 12:18:59;;;;;;;1.10;0.73;;;9.60;99.90;;;;;;4920619;29;20456;-69
2022/11/12 12:21:31;;;;;;;0.50;0.10;;;9.60;99.90;;;;;;4925134;29;20440;-69
2022/11/12 12:24:04;;;;;;;0.50;0.10;;;9.70;99.90;;;;;;4926789;29;20476;-72
2022/11/12 12:26:38;;;;;;;0.50;0.10;;;9.80;99.90;;;;;;4932794;29;21003;-74
2022/11/12 12:29:12;;;;;;;0.50;0.10;;;9.80;99.90;;;;;;4923787;29;20483;-69
2022/11/12 12:31:44;;;;;;;0.50;0.10;;;9.80;99.90;;;;;;4930464;29;20512;-69
2022/11/12 12:34:19;;;;;;;1.83;1.73;;;9.90;99.90;;;;;;4917224;29;20496;-71
2022/11/12 12:36:52;;;;;;;0.50;0.10;;;9.90;99.90;;;;;;4928429;29;21034;-70
2022/11/12 12:39:26;;;;;;;0.50;0.10;;;9.90;99.90;;;;;;4941393;29;20455;-69
2022/11/12 12:41:58;;;;;;;0.50;0.10;;;9.90;99.90;;;;;;4939924;28;20510;-74
2022/11/12 12:47:13;;;;;;;0.50;0.10;;;10.00;99.90;;;;;;4928360;29;20531;-73
2022/11/12 12:49:42;;;;;;;0.50;0.10;;;10.10;99.90;;;;;;4925271;29;20456;-73
2022/11/12 12:52:12;;;;;;;0.50;0.10;;;10.20;99.90;;;;;;4929114;29;20452;-69
2022/11/12 12:54:57;;;;;;;0.50;0.10;;;10.20;99.90;;;;;;4929142;29;21018;-70
2022/11/12 12:57:33;;;;;;;9.97;9.43;;;10.20;99.90;;;;;;4929103;29;20481;-70
2022/11/12 13:00:28;;;;;;;0.50;0.10;;;10.30;99.90;;;;;;4920858;29;20459;-70
2022/11/12 13:02:56;;;;;;;0.50;0.13;;;10.30;99.90;;;;;;4924315;29;20972;-74
2022/11/12 13:05:29;;;;;;;0.50;0.10;;;10.30;99.90;;;;;;4917848;29;20456;-71
2022/11/12 13:08:00;;;;;;;0.50;0.10;;;10.40;99.90;;;;;;4927285;29;20507;-71
2022/11/12 13:10:54;;;;;;;0.50;0.10;;;10.50;99.90;;;;;;4931454;29;20448;-72
2022/11/12 13:13:31;;;;;;;0.50;0.10;;;10.50;99.90;;;;;;4916351;29;20447;-71
2022/11/12 13:16:01;;;;;;;0.50;0.10;;;10.60;99.90;;;;;;4918591;29;20531;-71
2022/11/12 13:18:59;;;;;;;0.50;0.10;;;10.60;99.90;;;;;;4926882;29;20448;-72
2022/11/12 13:21:27;;;;;;;0.50;0.10;;;10.60;99.90;;;;;;4931395;29;20464;-72
2022/11/12 13:24:09;;;;;;;0.50;0.10;;;10.60;99.90;;;;;;4935089;29;20444;-71
2022/11/12 13:26:54;;;;;;;1.33;1.23;;;10.60;99.90;;;;;;4916627;29;20461;-72
2022/11/12 13:29:40;;;;;;;0.50;0.20;;;10.60;99.90;;;;;;4916297;29;20504;-69
2022/11/12 13:32:32;;;;;;;0.50;0.10;;;10.60;99.90;;;;;;4918152;29;20452;-70
2022/11/12 13:35:35;;;;;;;0.50;0.10;;;10.60;99.90;;;;;;4931669;29;20489;-70
2022/11/12 13:38:11;;;;;;;0.50;0.10;;;10.50;99.90;;;;;;4928021;29;20471;-71
2022/11/12 13:40:45;;;;;;;0.50;0.10;;;10.50;99.90;;;;;;4935488;29;20440;-72
2022/11/12 13:43:30;;;;;;;0.50;0.10;;;10.50;99.90;;;;;;4921671;29;20520;-70
2022/11/12 13:46:15;;;;;;;0.50;0.10;;;10.50;99.90;;;;;;4927223;29;20848;-72
2022/11/12 13:48:45;;;;;;;0.50;0.10;;;10.50;99.90;;;;;;4934883;29;20455;-71
2022/11/12 13:51:16;;;;;;;0.50;0.10;;;10.50;99.90;;;;;;4920996;29;20463;-72
2022/11/12 13:53:44;;;;;;;0.50;0.20;;;10.50;99.90;;;;;;4915866;29;20453;-71
2022/11/12 13:56:23;;;;;;;0.50;0.30;;;10.50;99.90;;;;;;4916121;29;20520;-71
2022/11/12 13:58:52;;;;;;;0.50;0.20;;;10.50;99.90;;;;;;4930536;29;20483;-73
2022/11/12 14:01:22;;;;;;;0.50;0.10;;;10.50;99.90;;;;;;4933771;29;20452;-71
2022/11/12 14:03:51;;;;;;;0.50;0.10;;;10.60;99.90;;;;;;4919152;29;20463;-72
2022/11/12 14:06:35;;;;;;;0.87;0.70;;;10.60;99.90;;;;;;4922759;29;20496;-70
2022/11/12 14:09:18;;;;;;;0.50;0.10;;;10.60;99.90;;;;;;4921401;29;20449;-70
2022/11/12 14:12:02;;;;;;;0.50;0.10;;;10.60;99.90;;;;;;4920105;29;20480;-69
2022/11/12 14:14:48;;;;;;;0.50;0.10;;;10.70;99.90;;;;;;4915511;29;20469;-73
2022/11/12 14:17:27;;;;;;;0.50;0.10;;;10.60;99.90;;;;;;4923079;29;20475;-71
2022/11/12 14:20:21;;;;;;;4.13;3.90;;;10.70;99.90;;;;;;4933449;29;20511;-74
2022/11/12 14:22:48;;;;;;;0.50;0.10;;;10.60;99.90;;;;;;4930253;29;20448;-72
2022/11/12 14:25:19;;;;;;;0.60;0.50;;;10.60;99.90;;;;;;4923061;29;20456;-75
2022/11/12 14:27:48;;;;;;;0.50;0.10;;;10.50;99.90;;;;;;4927828;29;21028;-70
2022/11/12 14:30:20;;;;;;;0.50;0.10;;;10.50;99.90;;;;;;4916775;29;20456;-70
2022/11/12 14:32:51;;;;;;;0.60;0.10;;;10.50;99.90;;;;;;4916642;29;20459;-72
2022/11/12 14:35:32;;;;;;;0.50;0.20;;;10.50;99.90;;;;;;4926115;29;20480;-74
2022/11/12 14:38:11;;;;;;;0.50;0.10;;;10.40;99.90;;;;;;4925558;29;20527;-73
2022/11/12 14:40:44;;;;;;;0.50;0.10;;;10.40;99.90;;;;;;4929125;29;20463;-70
2022/11/12 14:43:36;;;;;;;0.50;0.10;;;10.40;99.90;;;;;;4927916;29;20952;-71
2022/11/12 14:46:07;;;;;;;0.60;0.40;;;10.40;99.90;;;;;;4911115;29;21273;-69
2022/11/12 14:48:46;;;;;;;0.50;0.10;;;10.40;99.90;;;;;;4930181;29;20448;-74
2022/11/12 14:51:15;;;;;;;0.50;0.10;;;9.80;99.90;;;;;;4934538;29;20439;-71
2022/11/12 14:53:47;;;;;;;28.40;16.50;;;10.30;99.90;;;;;;4919759;29;20453;-69
2022/11/12 14:56:22;;;;;;;0.50;0.20;;;10.30;99.90;;;;;;4915118;29;20491;-72
2022/11/12 14:58:53;;;;;;;0.50;0.10;;;10.20;99.90;;;;;;4930032;29;20463;-70
2022/11/12 15:01:26;;;;;;;0.50;0.10;;;10.10;99.90;;;;;;4927597;29;20951;-72
2022/11/12 15:04:19;;;;;;;0.50;0.10;;;10.00;99.90;;;;;;4915763;29;20553;-73
2022/11/12 15:06:53;;;;;;;0.50;0.10;;;10.00;99.90;;;;;;4920584;29;20475;-71
2022/11/12 15:09:33;;;;;;;0.50;0.10;;;10.00;99.90;;;;;;4933027;29;20955;-73
2022/11/12 15:12:02;;;;;;;0.50;0.10;;;10.00;99.90;;;;;;4932645;29;21033;-71
2022/11/12 15:14:30;;;;;;;0.50;0.10;;;9.90;99.90;;;;;;4935483;29;20450;-73
2022/11/12 15:17:00;;;;;;;0.50;0.10;;;9.80;99.90;;;;;;4918630;29;20522;-72
2022/11/12 15:19:28;;;;;;;0.60;0.50;;;9.80;99.90;;;;;;4931713;29;20444;-70
2022/11/12 15:22:00;;;;;;;0.50;0.10;;;9.80;99.90;;;;;;4918338;29;20452;-71
2022/11/12 15:24:31;;;;;;;0.50;0.10;;;9.70;99.90;;;;;;4919383;29;20449;-70
2022/11/12 15:27:00;;;;;;;0.50;0.10;;;9.70;99.90;;;;;;4924702;29;20450;-71
2022/11/12 15:29:31;;;;;;;1.33;1.23;;;9.70;99.90;;;;;;4940992;29;20451;-71
2022/11/12 15:32:03;;;;;;;0.93;0.80;;;9.50;99.90;;;;;;4934815;29;20454;-77
2022/11/12 15:34:46;;;;;;;0.50;0.10;;;9.50;99.90;;;;;;4947864;29;20448;-71
2022/11/12 15:37:24;;;;;;;0.50;0.10;;;9.40;99.90;;;;;;4942323;29;20483;-70
2022/11/12 15:39:55;;;;;;;0.50;0.10;;;9.40;99.90;;;;;;4947518;29;20958;-74
2022/11/12 15:42:27;;;;;;;0.50;0.10;;;9.30;99.90;;;;;;4935271;29;20862;-72
2022/11/12 15:45:02;;;;;;;0.50;0.10;;;9.30;99.90;;;;;;4926187;29;20455;-73
2022/11/12 15:47:31;;;;;;;0.50;0.10;;;9.30;99.90;;;;;;4921364;29;20463;-72
2022/11/12 15:49:59;;;;;;;0.50;0.10;;;9.30;99.90;;;;;;4928325;29;20457;-73
2022/11/12 15:52:27;;;;;;;0.50;0.10;;;9.30;99.90;;;;;;4916869;29;20471;-70
2022/11/12 15:54:55;;;;;;;0.50;0.10;;;9.20;99.90;;;;;;4935684;29;20811;-75
2022/11/12 15:57:26;;;;;;;0.50;0.10;;;9.10;99.90;;;;;;4937634;29;20483;-69
2022/11/12 15:59:58;;;;;;;0.50;0.10;;;9.10;99.90;;;;;;4937001;29;20456;-71
2022/11/12 16:02:35;;;;;;;0.50;0.10;;;9.10;99.90;;;;;;4934445;29;20464;-70
2022/11/12 16:05:03;;;;;;;0.50;0.20;;;9.00;99.90;;;;;;4937022;29;20830;-73
2022/11/12 16:07:31;;;;;;;0.50;0.10;;;9.00;99.90;;;;;;4937924;29;20551;-70
2022/11/12 16:09:59;;;;;;;0.50;0.10;;;8.90;99.90;;;;;;4950518;29;20462;-70
2022/11/12 16:12:27;;;;;;;0.50;0.10;;;8.90;99.90;;;;;;4930837;29;20687;-69
2022/11/12 16:14:55;;;;;;;0.50;0.10;;;8.90;99.90;;;;;;4923243;29;20457;-69
2022/11/12 16:17:23;;;;;;;0.50;0.20;;;8.90;99.90;;;;;;4917471;29;20557;-67
2022/11/12 16:19:52;;;;;;;0.50;0.10;;;8.90;99.90;;;;;;4953244;29;20481;-69
2022/11/12 16:22:20;;;;;;;0.50;0.23;;;8.80;99.90;;;;;;4935782;29;20452;-70
2022/11/12 16:24:48;;;;;;;0.70;0.70;;;8.80;99.90;;;;;;4924676;29;20489;-71
2022/11/12 16:27:16;;;;;;;0.50;0.10;;;8.80;99.90;;;;;;4927684;29;20515;-68
2022/11/12 16:29:44;;;;;;;0.50;0.10;;;8.70;99.90;;;;;;4931871;29;20453;-73
2022/11/12 16:32:14;;;;;;;0.50;0.10;;;8.60;99.90;;;;;;4926615;29;20458;-74
2022/11/12 16:34:42;;;;;;;0.60;0.33;;;;;;;;;;4934287;29;20527;-72
2022/11/12 16:37:12;;;;;;;0.60;0.20;;;8.60;99.90;;;;;;4936771;29;20527;-74
2022/11/12 16:39:40;;;;;;;0.50;0.10;;;8.60;99.90;;;;;;4935901;29;20452;-73
2022/11/12 16:42:10;;;;;;;0.50;0.10;;;8.60;99.90;;;;;;4935498;29;20451;-75
2022/11/12 16:44:38;;;;;;;0.50;0.10;;;8.50;99.90;;;;;;4923061;29;20483;-72
2022/11/12 16:47:06;;;;;;;0.50;0.10;;;7.70;99.90;;;;;;4934275;29;20488;-74
2022/11/12 16:49:34;;;;;;;0.50;0.10;;;8.50;99.90;;;;;;4935811;29;20458;-72
2022/11/12 16:52:05;;;;;;;0.50;0.30;;;8.50;99.90;;;;;;4936292;29;20482;-73
2022/11/12 16:54:34;;;;;;;0.50;0.20;;;8.40;99.90;;;;;;4935434;29;20455;-72
2022/11/12 16:57:03;;;;;;;0.50;0.10;;;8.40;99.90;;;;;;4936258;29;20493;-73
2022/11/12 16:59:31;;;;;;;0.50;0.10;;;;;;;;;;4951496;29;20558;-71
2022/11/12 17:01:59;;;;;;;0.50;0.10;;;8.40;99.90;;;;;;4930781;29;20492;-74
2022/11/12 17:04:27;;;;;;;0.50;0.10;;;8.30;99.90;;;;;;4924527;29;20491;-75
2022/11/12 17:06:54;;;;;;;1.90;1.80;;;8.40;1.00;;;;;;4936159;29;20508;-73
2022/11/12 17:09:22;;;;;;;0.50;0.10;;;8.40;1.00;;;;;;4924441;29;20816;-73
2022/11/12 17:11:51;;;;;;;0.50;0.10;;;8.40;1.00;;;;;;4931048;29;20824;-75
2022/11/12 17:14:19;;;;;;;0.50;0.20;;;8.40;1.00;;;;;;4929813;29;20460;-74
2022/11/12 17:16:54;;;;;;;0.50;0.10;;;8.40;1.00;;;;;;4919002;29;20551;-75
2022/11/12 17:19:22;;;;;;;0.50;0.10;;;8.40;1.00;;;;;;4935640;29;20451;-76
2022/11/12 17:21:50;;;;;;;0.50;0.10;;;8.40;1.00;;;;;;4920377;29;20471;-77
2022/11/12 17:24:18;;;;;;;1.97;1.87;;;8.40;1.00;;;;;;4935658;29;20831;-75
2022/11/12 17:26:46;;;;;;;0.50;0.10;;;8.40;1.00;;;;;;4924834;29;20469;-76
2022/11/12 17:29:15;;;;;;;0.50;0.10;;;8.40;1.00;;;;;;4916846;29;20456;-74
2022/11/12 17:31:42;;;;;;;0.50;0.10;;;8.40;1.00;;;;;;4916575;29;20453;-76
2022/11/12 17:34:10;;;;;;;0.50;0.10;;;8.40;1.00;;;;;;4915866;29;20449;-74